Time;durP1;ratioP1;P1;durP2;ratioP2;P2;SDS_P1;SDS_P2;PMS_P1;PMS_P2;Temp;Humidity;BMP_temperature;BMP_pressure;BME280_temperature;BME280_humidity;BME280_pressure;Samples;Min_cycle;Max_cycle;Signal;HPM_P1;HPM_P2
2023/07/10 00:00:56;;;;;;;9.45;5.50;;;;;;;18.57;84.61;101919.09;6216594;23;20020;-70
2023/07/10 00:03:21;;;;;;;10.45;5.28;;;;;;;18.55;84.64;101917.38;6190326;23;20103;-70
2023/07/10 00:05:47;;;;;;;11.45;5.50;;;;;;;18.61;84.34;101915.44;6190328;23;20032;-68
2023/07/10 00:08:12;;;;;;;11.75;5.88;;;;;;;18.51;84.26;101911.31;6217468;23;20014;-69
2023/07/10 00:10:38;;;;;;;10.10;5.53;;;;;;;18.48;84.52;101914.03;6192743;23;20015;-69
2023/07/10 00:13:04;;;;;;;12.15;6.38;;;;;;;18.54;84.53;101924.47;6245482;23;20321;-69
2023/07/10 00:15:30;;;;;;;13.48;5.78;;;;;;;18.47;84.76;101925.56;6216294;23;20004;-69
2023/07/10 00:17:55;;;;;;;9.07;5.68;;;;;;;18.46;84.54;101929.13;6191223;23;20016;-69
2023/07/10 00:20:24;;;;;;;11.02;6.20;;;;;;;18.39;85.16;101930.19;6217466;23;20095;-70
2023/07/10 00:22:50;;;;;;;9.93;5.45;;;;;;;18.49;84.39;101929.06;6244547;23;20477;-69
2023/07/10 00:25:17;;;;;;;12.38;6.57;;;;;;;18.37;84.82;101924.94;6192035;23;20427;-69
2023/07/10 00:27:44;;;;;;;10.93;6.43;;;;;;;18.42;85.32;101919.50;6218891;23;20083;-69
2023/07/10 00:30:15;;;;;;;13.13;6.97;;;;;;;18.36;85.01;101917.91;6216652;23;20012;-69
2023/07/10 00:32:43;;;;;;;13.35;7.47;;;;;;;18.43;84.97;101930.09;6217333;23;20019;-70
2023/07/10 00:35:08;;;;;;;13.35;7.32;;;;;;;18.35;84.92;101929.44;6192219;23;20012;-70
2023/07/10 00:37:34;;;;;;;25.40;7.75;;;;;;;18.38;84.93;101925.84;6217953;23;20004;-70
2023/07/10 00:39:59;;;;;;;13.07;7.25;;;;;;;18.38;85.93;101925.84;6191015;23;20008;-70
2023/07/10 00:42:26;;;;;;;12.57;7.75;;;;;;;18.38;85.94;101926.69;6192838;23;20004;-70
2023/07/10 00:44:58;;;;;;;13.73;7.57;;;;;;;18.49;86.25;101919.31;6217608;23;20158;-70
2023/07/10 00:47:35;;;;;;;15.52;8.60;;;;;;;18.52;86.21;101918.34;6217138;23;20410;-69
2023/07/10 00:50:04;;;;;;;12.48;7.88;;;;;;;18.38;85.77;101921.38;6217086;23;20141;-69
2023/07/10 00:52:49;;;;;;;13.18;7.90;;;;;;;18.42;86.09;101925.69;6217486;23;20019;-69
2023/07/10 00:55:33;;;;;;;12.60;8.07;;;;;;;18.23;86.16;101925.34;6216419;23;20015;-69
2023/07/10 00:58:18;;;;;;;11.88;8.07;;;;;;;18.34;85.92;101940.94;6216823;23;20030;-70
2023/07/10 01:01:03;;;;;;;12.30;7.90;;;;;;;18.28;86.67;101944.63;6214132;23;20505;-70
2023/07/10 01:03:29;;;;;;;16.92;8.48;;;;;;;18.17;87.33;101944.03;6216677;23;20008;-70
2023/07/10 01:06:00;;;;;;;13.50;8.05;;;;;;;18.26;87.06;101940.28;6191585;23;20020;-69
2023/07/10 01:08:27;;;;;;;11.88;7.55;;;;;;;18.25;87.00;101941.22;6216828;23;20066;-70
2023/07/10 01:10:52;;;;;;;10.43;7.00;;;;;;;18.27;86.93;101945.53;6216506;23;20012;-69
2023/07/10 01:13:18;;;;;;;12.75;7.47;;;;;;;18.28;86.68;101933.16;6193022;23;20015;-69
2023/07/10 01:15:44;;;;;;;10.25;7.03;;;;;;;18.23;87.53;101927.09;6243592;22;20007;-69
2023/07/10 01:18:11;;;;;;;11.57;6.82;;;;;;;18.23;86.12;101924.44;6191057;23;20012;-70
2023/07/10 01:20:51;;;;;;;10.98;6.55;;;;;;;18.21;86.48;101927.13;6216667;23;20333;-69
2023/07/10 01:23:18;;;;;;;10.85;6.40;;;;;;;18.06;85.75;101936.38;6217520;23;20039;-69
2023/07/10 01:25:58;;;;;;;11.35;6.50;;;;;;;18.04;86.05;101935.53;6191940;23;20414;-69
2023/07/10 01:28:24;;;;;;;;;;;;;;;18.18;84.47;101936.03;6218153;23;20512;-69
2023/07/10 01:30:52;;;;;;;15.18;6.45;;;;;;;17.88;86.21;101937.66;6191469;23;19912;-70
2023/07/10 01:33:27;;;;;;;9.63;6.60;;;;;;;17.91;86.46;101942.91;6243581;23;20371;-69
2023/07/10 01:35:57;;;;;;;10.65;7.20;;;;;;;17.74;87.33;101942.44;6192570;23;20758;-70
2023/07/10 01:38:38;;;;;;;11.20;7.63;;;;;;;17.81;87.23;101938.72;6217548;23;20008;-70
2023/07/10 01:41:15;;;;;;;11.20;6.57;;;;;;;17.78;86.96;101931.72;6217229;23;20008;-70
2023/07/10 01:43:42;;;;;;;10.32;6.20;;;;;;;17.74;87.00;101921.22;6216839;23;20027;-70
2023/07/10 01:46:20;;;;;;;9.10;6.07;;;;;;;17.70;86.76;101932.81;6217736;23;20011;-70
2023/07/10 01:48:47;;;;;;;10.30;5.80;;;;;;;17.73;87.06;101928.31;6217086;23;20015;-70
2023/07/10 01:51:12;;;;;;;10.57;5.82;;;;;;;17.75;86.86;101921.19;6192868;23;20081;-70
2023/07/10 01:53:38;;;;;;;13.75;5.80;;;;;;;17.73;86.66;101928.31;6190162;23;20008;-70
2023/07/10 01:56:03;;;;;;;11.60;6.07;;;;;;;17.75;86.81;101937.09;6166556;23;20096;-68
2023/07/10 01:58:31;;;;;;;12.15;6.78;;;;;;;17.73;86.13;101938.03;6166782;23;20023;-69
2023/07/10 02:00:57;;;;;;;9.27;5.90;;;;;;;17.79;86.15;101940.56;6216195;23;20341;-69
2023/07/10 02:03:22;;;;;;;10.65;6.05;;;;;;;17.71;86.36;101942.53;6166995;23;20012;-67
2023/07/10 02:05:48;;;;;;;9.77;5.20;;;;;;;17.71;85.62;101938.06;6188811;23;20724;-67
2023/07/10 02:08:13;;;;;;;9.25;5.28;;;;;;;17.79;85.44;101925.50;6190853;23;20043;-67
2023/07/10 02:10:39;;;;;;;8.80;5.20;;;;;;;17.71;86.18;101930.13;6189970;23;20012;-67
2023/07/10 02:13:04;;;;;;;7.43;5.25;;;;;;;17.70;86.19;101924.88;6192235;23;20298;-67
2023/07/10 02:15:29;;;;;;;10.77;5.53;;;;;;;17.73;85.34;101930.09;6190968;23;20095;-67
2023/07/10 02:17:57;;;;;;;9.45;5.13;;;;;;;17.62;85.39;101941.81;6216283;23;20050;-68
2023/07/10 02:20:23;;;;;;;11.80;5.05;;;;;;;17.50;86.33;101931.53;6192282;23;20008;-69
2023/07/10 02:22:48;;;;;;;7.80;4.57;;;;;;;17.37;86.11;101930.94;6191901;23;20015;-69
2023/07/10 02:25:14;;;;;;;10.60;4.90;;;;;;;17.30;86.31;101924.91;6191329;23;20143;-69
2023/07/10 02:27:39;;;;;;;12.55;5.05;;;;;;;17.33;86.62;101942.50;6192803;23;20004;-68
2023/07/10 02:30:05;;;;;;;9.13;4.88;;;;;;;17.33;86.57;101946.94;6191147;23;20018;-69
2023/07/10 02:32:31;;;;;;;9.05;4.50;;;;;;;17.13;87.16;101932.34;6191068;23;20117;-68
2023/07/10 02:34:56;;;;;;;7.75;5.00;;;;;;;17.18;87.22;101941.06;6190864;23;20007;-69
2023/07/10 02:37:22;;;;;;;8.43;4.68;;;;;;;17.12;87.26;101952.69;6191745;23;20430;-69
2023/07/10 02:39:47;;;;;;;7.38;4.68;;;;;;;17.12;87.63;101951.78;6190985;23;20058;-69
2023/07/10 02:42:13;;;;;;;9.85;5.35;;;;;;;17.06;87.83;101959.88;6191067;23;20012;-69
2023/07/10 02:44:38;;;;;;;10.05;5.25;;;;;;;16.97;88.84;101953.84;6191679;23;20095;-68
2023/07/10 02:47:04;;;;;;;7.47;4.40;;;;;;;16.97;88.84;101948.56;6190569;23;20098;-69
2023/07/10 02:49:40;;;;;;;9.75;5.38;;;;;;;16.86;89.48;101949.66;6216854;23;20007;-68
2023/07/10 02:52:15;;;;;;;13.60;5.40;;;;;;;16.91;89.97;101950.44;6244552;23;20062;-68
2023/07/10 02:54:40;;;;;;;9.73;5.70;;;;;;;16.99;89.21;101950.31;6190500;23;20055;-69
2023/07/10 02:57:06;;;;;;;7.75;5.60;;;;;;;16.93;89.13;101960.13;6166292;23;20288;-69
2023/07/10 02:59:31;;;;;;;8.35;5.60;;;;;;;16.90;89.09;101961.97;6188655;23;20070;-68
2023/07/10 03:01:59;;;;;;;11.10;5.82;;;;;;;16.84;88.75;101955.00;6189933;23;20016;-69
2023/07/10 03:04:25;;;;;;;8.00;5.43;;;;;;;16.92;88.18;101961.03;6191693;23;20452;-67
2023/07/10 03:06:50;;;;;;;9.05;4.55;;;;;;;16.84;88.22;101962.94;6190503;23;20008;-67
2023/07/10 03:09:16;;;;;;;8.20;4.80;;;;;;;16.90;87.96;101961.97;6190164;23;20011;-67
2023/07/10 03:11:42;;;;;;;7.07;4.45;;;;;;;16.89;87.60;101966.38;6191258;23;20023;-67
2023/07/10 03:14:07;;;;;;;7.90;4.57;;;;;;;16.95;87.54;101963.63;6188171;22;20036;-67
2023/07/10 03:16:33;;;;;;;9.27;4.80;;;;;;;16.83;88.23;101969.13;6191280;23;20012;-68
2023/07/10 03:18:58;;;;;;;7.65;4.32;;;;;;;16.84;88.21;101967.34;6190455;23;20015;-68
2023/07/10 03:21:25;;;;;;;10.32;4.85;;;;;;;16.71;88.95;101969.38;6166195;23;20012;-67
2023/07/10 03:23:50;;;;;;;9.73;4.95;;;;;;;16.75;88.63;101971.03;6190245;22;20008;-68
2023/07/10 03:26:16;;;;;;;9.25;4.90;;;;;;;16.74;89.13;101988.69;6191150;23;20051;-67
2023/07/10 03:28:41;;;;;;;8.45;4.97;;;;;;;16.75;89.11;101989.56;6216487;23;20015;-68
2023/07/10 03:31:07;;;;;;;9.52;4.82;;;;;;;16.67;88.76;101986.22;6191683;23;20004;-68
2023/07/10 03:33:33;;;;;;;8.98;4.90;;;;;;;16.63;88.71;101991.53;6216449;23;20486;-69
2023/07/10 03:36:08;;;;;;;7.43;4.72;;;;;;;16.66;88.90;101995.06;6243154;22;20026;-69
2023/07/10 03:38:34;;;;;;;8.60;4.90;;;;;;;16.61;88.98;101988.06;6216626;23;20014;-69
2023/07/10 03:40:59;;;;;;;7.80;4.60;;;;;;;16.66;88.70;101987.97;6192091;23;20158;-69
2023/07/10 03:43:26;;;;;;;8.23;4.82;;;;;;;16.62;88.97;101992.47;6168206;23;20466;-68
2023/07/10 03:45:54;;;;;;;9.80;5.28;;;;;;;16.69;88.47;102001.13;6218479;23;20287;-69
2023/07/10 03:48:20;;;;;;;8.57;5.30;;;;;;;16.52;89.06;101998.84;6245510;23;20022;-68
2023/07/10 03:50:45;;;;;;;10.75;5.43;;;;;;;16.48;89.33;101991.84;6193679;23;20322;-68
2023/07/10 03:53:11;;;;;;;9.80;5.63;;;;;;;16.54;89.11;101991.72;6194024;23;20012;-68
2023/07/10 03:55:36;;;;;;;7.45;5.20;;;;;;;16.47;89.22;101995.38;6168008;23;20008;-69
2023/07/10 03:58:02;;;;;;;9.43;6.05;;;;;;;16.33;90.55;101989.47;6218616;23;20043;-69
2023/07/10 04:00:27;;;;;;;8.60;5.60;;;;;;;16.35;90.29;101996.47;6193703;23;20015;-68
2023/07/10 04:02:53;;;;;;;10.18;6.20;;;;;;;16.25;90.81;101997.53;6218210;23;20462;-68
2023/07/10 04:05:18;;;;;;;10.20;6.40;;;;;;;16.27;90.76;102001.88;6168583;23;20470;-68
2023/07/10 04:07:44;;;;;;;9.43;5.82;;;;;;;16.40;89.88;102004.34;6192737;23;20292;-69
2023/07/10 04:10:09;;;;;;;11.73;6.25;;;;;;;16.30;89.88;102008.03;6192528;23;20338;-68
2023/07/10 04:12:35;;;;;;;8.98;6.00;;;;;;;16.29;90.97;102015.06;6193545;23;20038;-69
2023/07/10 04:15:00;;;;;;;14.32;7.38;;;;;;;16.52;90.16;102016.47;6193168;23;20070;-69
2023/07/10 04:17:26;;;;;;;8.98;6.70;;;;;;;16.54;89.64;102015.53;6192977;23;20018;-68
2023/07/10 04:19:51;;;;;;;12.48;7.20;;;;;;;16.78;89.15;102010.72;6217784;23;20000;-69
2023/07/10 04:22:16;;;;;;;11.23;6.90;;;;;;;17.33;87.38;102023.78;6214479;23;20007;-69
2023/07/10 04:24:42;;;;;;;9.93;6.80;;;;;;;17.57;86.09;102023.25;6192485;23;20019;-68
2023/07/10 04:27:08;;;;;;;11.15;6.53;;;;;;;17.98;84.83;102016.13;6217120;23;20016;-68
2023/07/10 04:29:35;;;;;;;8.73;7.47;;;;;;;18.32;82.90;102023.25;6192775;23;20008;-68
2023/07/10 04:32:00;;;;;;;12.90;8.85;;;;;;;18.47;82.30;102016.66;6216433;23;20011;-69
2023/07/10 04:34:26;;;;;;;9.25;8.27;;;;;;;18.98;80.81;102017.13;6190229;23;20012;-68
2023/07/10 04:36:51;;;;;;;10.65;8.35;;;;;;;19.19;80.15;102016.50;6191779;23;20012;-68
2023/07/10 04:39:16;;;;;;;13.55;8.50;;;;;;;19.74;78.16;102019.25;6165081;23;20073;-68
2023/07/10 04:41:43;;;;;;;9.55;8.30;;;;;;;19.96;77.24;102021.28;6217176;23;20051;-68
2023/07/10 04:44:08;;;;;;;11.73;8.68;;;;;;;20.36;73.78;102017.28;6192098;22;20430;-68
2023/07/10 04:46:34;;;;;;;11.98;8.63;;;;;;;20.51;72.90;102020.34;6192451;23;20008;-68
2023/07/10 04:49:00;;;;;;;9.57;7.40;;;;;;;21.11;72.32;102023.53;6191608;23;20449;-68
2023/07/10 04:51:25;;;;;;;9.48;7.40;;;;;;;21.53;70.30;102022.84;6192166;23;20008;-68
2023/07/10 04:53:51;;;;;;;11.32;7.78;;;;;;;21.96;68.18;102014.94;6189262;22;20018;-68
2023/07/10 04:56:18;;;;;;;9.93;7.30;;;;;;;22.30;67.50;102029.53;6188996;23;20032;-68
2023/07/10 04:58:53;;;;;;;10.60;6.57;;;;;;;22.69;65.82;102034.13;6190974;23;20051;-68
2023/07/10 05:01:21;;;;;;;7.88;6.82;;;;;;;22.76;65.89;102032.91;6215691;23;20012;-67
2023/07/10 05:03:47;;;;;;;9.73;6.97;;;;;;;22.95;64.41;102030.28;6213456;22;20032;-67
2023/07/10 05:06:13;;;;;;;10.52;6.63;;;;;;;22.95;63.32;102045.47;6214814;23;20099;-67
2023/07/10 05:08:39;;;;;;;8.30;6.90;;;;;;;23.78;62.04;102038.94;6189739;23;20018;-67
2023/07/10 05:11:05;;;;;;;8.52;5.90;;;;;;;23.60;61.77;102040.69;6164932;23;20004;-68
2023/07/10 05:13:30;;;;;;;10.93;6.40;;;;;;;22.91;61.71;102049.22;6215300;23;20004;-68
2023/07/10 05:15:58;;;;;;;8.50;6.30;;;;;;;22.97;63.18;102049.81;6191556;23;20031;-69
2023/07/10 05:18:25;;;;;;;7.32;5.68;;;;;;;23.87;61.63;102049.22;6215325;23;20016;-68
2023/07/10 05:20:51;;;;;;;8.95;5.60;;;;;;;23.62;60.47;102045.97;6215374;23;20008;-68
2023/07/10 05:23:17;;;;;;;8.13;5.72;;;;;;;23.66;61.28;102040.41;6243506;23;20012;-68
2023/07/10 05:26:01;;;;;;;7.88;5.38;;;;;;;24.39;61.24;102050.25;6214891;23;20339;-68
2023/07/10 05:28:27;;;;;;;10.98;5.45;;;;;;;24.68;58.29;102050.59;6212871;23;20004;-68
2023/07/10 05:30:54;;;;;;;8.30;5.25;;;;;;;25.44;56.91;102052.78;6190734;23;20426;-69
2023/07/10 05:33:20;;;;;;;8.38;5.47;;;;;;;25.99;53.95;102051.50;6188855;23;20008;-68
2023/07/10 05:35:57;;;;;;;7.95;5.22;;;;;;;26.82;54.57;102067.22;6214891;23;20012;-68
2023/07/10 05:38:26;;;;;;;10.00;5.20;;;;;;;27.27;50.52;102062.63;6216367;23;20011;-67
2023/07/10 05:40:52;;;;;;;7.90;4.82;;;;;;;27.55;49.93;102055.50;6214617;23;20452;-67
2023/07/10 05:43:17;;;;;;;7.75;4.95;;;;;;;27.95;47.39;102058.28;6215675;23;20004;-67
2023/07/10 05:45:43;;;;;;;8.13;4.75;;;;;;;28.06;49.43;102056.72;6190522;23;20008;-68
2023/07/10 05:48:09;;;;;;;8.02;4.85;;;;;;;28.49;47.86;102061.91;6191139;23;20249;-67
2023/07/10 05:50:34;;;;;;;9.48;4.65;;;;;;;28.96;46.59;102064.97;6191002;23;20553;-67
2023/07/10 05:53:00;;;;;;;6.97;4.47;;;;;;;29.26;45.60;102067.34;6191444;23;20005;-67
2023/07/10 05:55:25;;;;;;;9.90;5.00;;;;;;;29.35;45.04;102055.91;6190612;23;20004;-67
2023/07/10 05:57:51;;;;;;;9.70;5.30;;;;;;;29.83;44.47;102060.53;6191487;23;20008;-67
2023/07/10 06:00:16;;;;;;;9.45;5.38;;;;;;;30.14;43.87;102051.94;6166389;23;20418;-67
2023/07/10 06:02:42;;;;;;;10.40;4.38;;;;;;;30.58;42.23;102058.50;6215587;23;20346;-67
2023/07/10 06:05:08;;;;;;;9.98;4.78;;;;;;;30.69;41.32;102069.34;6190900;23;20042;-67
2023/07/10 06:07:33;;;;;;;8.32;4.88;;;;;;;30.84;41.48;102061.00;6191647;23;20020;-67
2023/07/10 06:09:59;;;;;;;9.88;4.55;;;;;;;30.99;41.94;102062.50;6190206;23;20020;-67
2023/07/10 06:12:24;;;;;;;8.25;4.40;;;;;;;31.12;41.10;102056.09;6191316;23;20376;-67
2023/07/10 06:14:50;;;;;;;8.30;4.38;;;;;;;30.95;42.09;102065.53;6191034;23;20051;-67
2023/07/10 06:17:15;;;;;;;8.25;4.57;;;;;;;30.44;40.50;102058.72;6190441;23;20311;-67
2023/07/10 06:19:41;;;;;;;6.93;4.13;;;;;;;30.47;41.72;102064.75;6191559;23;20004;-67
2023/07/10 06:22:08;;;;;;;5.00;3.83;;;;;;;30.48;41.46;102066.47;6166798;23;20011;-67
2023/07/10 06:24:34;;;;;;;6.45;4.10;;;;;;;30.46;39.90;102067.56;6190963;23;20085;-67
2023/07/10 06:26:59;;;;;;;8.70;4.53;;;;;;;30.72;41.12;102073.66;6191517;23;20008;-67
2023/07/10 06:29:25;;;;;;;6.47;3.83;;;;;;;30.84;40.15;102077.22;6191564;23;20466;-67
2023/07/10 06:31:50;;;;;;;6.15;3.65;;;;;;;31.02;40.42;102081.22;6191532;23;20012;-67
2023/07/10 06:34:15;;;;;;;7.28;3.60;;;;;;;31.42;39.58;102077.13;6186779;23;20008;-67
2023/07/10 06:36:41;;;;;;;6.72;3.58;;;;;;;31.15;38.18;102077.50;6191267;23;20004;-67
2023/07/10 06:39:06;;;;;;;6.78;4.10;;;;;;;31.29;39.35;102087.25;6165288;23;20015;-67
2023/07/10 06:41:32;;;;;;;8.13;3.70;;;;;;;30.82;39.95;102087.34;6190771;23;20019;-67
2023/07/10 06:43:57;;;;;;;5.78;3.38;;;;;;;30.06;40.11;102087.66;6191148;22;20012;-67
2023/07/10 06:46:23;;;;;;;6.60;3.47;;;;;;;29.70;41.88;102092.94;6191032;23;20016;-67
2023/07/10 06:48:49;;;;;;;8.20;3.85;;;;;;;29.44;43.82;102092.16;6190684;23;20086;-67
2023/07/10 06:51:14;;;;;;;6.03;3.50;;;;;;;28.83;44.38;102083.88;6191613;23;20706;-67
2023/07/10 06:53:40;;;;;;;5.82;3.22;;;;;;;28.43;45.93;102082.06;6215698;23;20008;-67
2023/07/10 06:56:05;;;;;;;6.63;3.80;;;;;;;27.77;45.57;102087.31;6191279;23;20004;-68
2023/07/10 06:58:34;;;;;;;8.30;3.88;;;;;;;26.71;46.03;102089.41;6191216;23;20011;-67
2023/07/10 07:01:00;;;;;;;7.40;3.92;;;;;;;26.59;48.15;102090.97;6190982;23;20027;-67
2023/07/10 07:03:27;;;;;;;8.55;3.88;;;;;;;26.35;48.27;102089.72;6190801;23;20014;-67
2023/07/10 07:05:53;;;;;;;7.97;3.30;;;;;;;25.94;49.70;102086.63;6190744;23;20038;-67
2023/07/10 07:08:21;;;;;;;7.55;3.17;;;;;;;25.64;51.57;102088.41;6215784;23;20434;-67
2023/07/10 07:10:50;;;;;;;9.48;4.18;;;;;;;25.55;51.78;102087.94;6189663;23;20019;-67
2023/07/10 07:13:16;;;;;;;10.45;3.90;;;;;;;25.63;52.85;102082.16;6215645;23;20114;-68
2023/07/10 07:15:41;;;;;;;6.78;3.58;;;;;;;25.52;51.72;102079.22;6190625;23;20402;-67
2023/07/10 07:18:07;;;;;;;6.57;3.63;;;;;;;25.43;50.43;102077.91;6190336;23;20322;-67
2023/07/10 07:20:33;;;;;;;10.85;3.65;;;;;;;25.07;49.98;102076.25;6191119;23;20216;-67
2023/07/10 07:22:59;;;;;;;8.45;4.10;;;;;;;24.93;52.28;102073.44;6215950;23;20008;-66
2023/07/10 07:25:27;;;;;;;7.82;3.85;;;;;;;24.71;51.87;102071.84;6190171;23;20023;-67
2023/07/10 07:27:53;;;;;;;6.78;3.30;;;;;;;24.70;53.45;102080.88;6215517;23;20019;-67
2023/07/10 07:30:18;;;;;;;9.00;3.45;;;;;;;24.48;52.00;102081.94;6191220;23;20341;-67
2023/07/10 07:32:44;;;;;;;8.75;3.88;;;;;;;24.32;52.73;102086.31;6215590;23;20031;-67
2023/07/10 07:35:10;;;;;;;7.70;3.90;;;;;;;24.27;53.71;102091.06;6190649;23;20407;-67
2023/07/10 07:37:36;;;;;;;10.35;4.20;;;;;;;24.19;53.66;102096.78;6190746;23;20008;-67
2023/07/10 07:40:02;;;;;;;8.80;4.20;;;;;;;24.46;53.98;102093.69;6215039;23;20008;-67
2023/07/10 07:42:28;;;;;;;11.90;4.18;;;;;;;24.30;54.68;102098.94;6189515;23;20004;-67
2023/07/10 07:44:54;;;;;;;9.63;4.40;;;;;;;24.11;53.09;102097.16;6213561;23;20046;-68
2023/07/10 07:47:19;;;;;;;8.32;4.03;;;;;;;23.86;55.08;102094.78;6165331;23;20018;-67
2023/07/10 07:49:45;;;;;;;7.78;4.05;;;;;;;23.68;54.58;102101.88;6190098;23;20031;-67
2023/07/10 07:52:10;;;;;;;8.88;4.18;;;;;;;23.45;54.76;102097.63;6190781;23;20087;-67
2023/07/10 07:54:35;;;;;;;10.40;4.43;;;;;;;23.38;55.28;102098.84;6189365;23;20011;-67
2023/07/10 07:57:01;;;;;;;12.25;4.68;;;;;;;23.45;56.53;102101.16;6188066;23;20015;-68
2023/07/10 07:59:27;;;;;;;13.32;4.72;;;;;;;23.34;56.91;102098.09;6166786;23;20012;-67
2023/07/10 08:01:52;;;;;;;10.13;4.60;;;;;;;23.49;58.98;102100.06;6190931;23;20056;-68
2023/07/10 08:04:19;;;;;;;8.43;4.00;;;;;;;23.38;56.86;102099.69;6191690;23;20099;-67
2023/07/10 08:06:46;;;;;;;9.27;4.15;;;;;;;23.40;57.34;102099.63;6216546;23;20004;-67
2023/07/10 08:09:11;;;;;;;9.40;3.80;;;;;;;23.55;57.30;102088.22;6215914;23;20063;-67
2023/07/10 08:11:37;;;;;;;10.23;4.60;;;;;;;23.62;58.27;102086.97;6191540;23;20445;-68
2023/07/10 08:14:02;;;;;;;8.25;4.32;;;;;;;23.66;57.24;102077.88;6191539;22;20011;-67
2023/07/10 08:16:28;;;;;;;10.68;4.35;;;;;;;23.82;55.45;102080.69;6191732;23;20008;-67
2023/07/10 08:18:53;;;;;;;7.57;4.10;;;;;;;23.87;56.80;102076.00;6191166;23;20406;-68
2023/07/10 08:21:19;;;;;;;10.27;4.32;;;;;;;23.64;55.62;102074.38;6167010;23;20012;-67
2023/07/10 08:23:45;;;;;;;9.95;4.20;;;;;;;23.80;56.76;102084.38;6213954;23;20004;-67
2023/07/10 08:26:11;;;;;;;7.43;3.70;;;;;;;23.81;57.24;102084.28;6191513;23;20099;-68
2023/07/10 08:28:36;;;;;;;8.05;3.50;;;;;;;23.86;56.79;102079.63;6191446;23;20015;-69
2023/07/10 08:31:02;;;;;;;7.32;3.38;;;;;;;23.84;55.95;102080.59;6168855;23;20091;-69
2023/07/10 08:33:28;;;;;;;8.57;3.60;;;;;;;23.87;55.64;102076.00;6192941;23;20111;-69
2023/07/10 08:36:02;;;;;;;7.30;3.30;;;;;;;23.85;55.27;102088.56;6193475;23;20070;-69
2023/07/10 08:38:28;;;;;;;9.95;3.55;;;;;;;23.76;55.50;102083.66;6216437;23;20004;-67
2023/07/10 08:41:03;;;;;;;10.50;3.50;;;;;;;23.88;54.79;102084.91;6208507;22;20510;-67
2023/07/10 08:43:29;;;;;;;7.28;3.17;;;;;;;23.69;52.43;102088.44;6218198;23;20107;-69
2023/07/10 08:46:02;;;;;;;6.20;2.70;;;;;;;23.76;52.66;102083.66;6212806;23;20040;-69
2023/07/10 08:48:53;;;;;;;8.20;3.00;;;;;;;23.76;53.88;102089.00;6187414;23;20070;-69
2023/07/10 08:51:19;;;;;;;8.77;2.70;;;;;;;23.60;52.20;102090.66;6188772;23;20000;-69
2023/07/10 08:53:51;;;;;;;9.25;3.10;;;;;;;23.67;53.92;102084.94;6187192;23;20013;-69
2023/07/10 08:56:33;;;;;;;7.78;2.50;;;;;;;23.60;52.27;102082.63;6187951;23;20055;-69
2023/07/10 08:59:13;;;;;;;7.13;2.70;;;;;;;23.47;54.44;102088.56;6188317;23;20042;-69
2023/07/10 09:01:42;;;;;;;7.30;2.80;;;;;;;23.53;53.64;102085.63;6186808;23;20001;-69
2023/07/10 09:04:13;;;;;;;10.02;3.42;;;;;;;23.51;56.02;102087.47;6186736;23;20019;-69
2023/07/10 09:06:43;;;;;;;8.95;3.28;;;;;;;23.44;54.33;102086.03;6187524;23;20020;-67
2023/07/10 09:09:19;;;;;;;7.28;2.70;;;;;;;23.69;55.36;102098.25;6187045;23;20015;-67
2023/07/10 09:11:46;;;;;;;7.82;2.75;;;;;;;23.76;54.84;102086.34;6187739;23;20012;-68
2023/07/10 09:14:29;;;;;;;7.22;2.80;;;;;;;23.83;54.79;102094.91;6162545;23;20326;-67
2023/07/10 09:16:56;;;;;;;5.80;2.15;;;;;;;23.75;53.81;102100.66;6186846;23;20008;-67
2023/07/10 09:19:24;;;;;;;9.07;2.88;;;;;;;23.77;51.20;102101.44;6187858;23;20087;-67
2023/07/10 09:21:49;;;;;;;7.78;2.47;;;;;;;23.75;53.29;102089.06;6187169;23;20329;-68
2023/07/10 09:24:21;;;;;;;5.38;2.50;;;;;;;23.81;53.70;102097.69;6186984;23;20009;-67
2023/07/10 09:26:47;;;;;;;7.50;2.45;;;;;;;23.94;52.54;102087.28;6187055;23;20005;-67
2023/07/10 09:29:14;;;;;;;9.02;2.58;;;;;;;23.84;50.88;102084.13;6188084;23;20091;-67
2023/07/10 09:31:48;;;;;;;7.88;2.30;;;;;;;23.84;52.52;102081.47;6187500;23;20009;-67
2023/07/10 09:34:14;;;;;;;7.80;2.50;;;;;;;23.93;50.44;102090.03;6186005;23;20012;-68
2023/07/10 09:36:39;;;;;;;6.70;2.28;;;;;;;23.89;52.71;102093.78;6211805;23;20004;-68
2023/07/10 09:39:05;;;;;;;7.85;2.03;;;;;;;23.87;49.43;102092.06;6187880;23;20005;-68
2023/07/10 09:41:31;;;;;;;5.95;1.85;;;;;;;24.04;49.65;102085.03;6162799;23;20013;-67
2023/07/10 09:44:01;;;;;;;5.90;1.75;;;;;;;24.04;51.53;102079.66;6187989;23;20012;-67
2023/07/10 09:46:31;;;;;;;8.90;2.10;;;;;;;24.22;51.54;102088.59;6187536;23;20035;-68
2023/07/10 09:49:00;;;;;;;6.88;2.30;;;;;;;24.24;50.09;102088.50;6214008;23;20008;-67
2023/07/10 09:51:27;;;;;;;9.55;2.65;;;;;;;24.25;51.00;102082.22;6212908;23;20335;-67
2023/07/10 09:54:07;;;;;;;8.13;2.70;;;;;;;24.11;51.39;102083.78;6184386;23;20432;-67
2023/07/10 09:56:35;;;;;;;6.15;2.60;;;;;;;24.30;50.90;102075.69;6187287;23;20118;-67
2023/07/10 09:59:16;;;;;;;6.72;2.35;;;;;;;23.98;49.73;102077.31;6187100;23;20439;-68
2023/07/10 10:01:42;;;;;;;4.35;1.95;;;;;;;23.96;49.88;102073.81;6187265;23;20005;-68
2023/07/10 10:04:09;;;;;;;5.57;1.92;;;;;;;23.95;49.16;102088.13;6187024;23;20316;-67
2023/07/10 10:06:35;;;;;;;7.10;2.20;;;;;;;24.03;50.00;102085.97;6162545;23;20008;-67
2023/07/10 10:09:14;;;;;;;6.45;2.10;;;;;;;24.23;50.51;102086.78;6211927;23;20009;-67
2023/07/10 10:11:49;;;;;;;6.45;2.50;;;;;;;24.27;51.08;102083.03;6187734;23;20372;-67
2023/07/10 10:14:22;;;;;;;6.65;2.08;;;;;;;24.24;49.48;102083.16;6187056;23;20334;-67
2023/07/10 10:16:55;;;;;;;7.00;2.53;;;;;;;24.10;50.11;102078.50;6187335;23;20005;-67
2023/07/10 10:19:45;;;;;;;6.53;2.30;;;;;;;24.30;52.16;102067.66;6184949;23;20013;-67
2023/07/10 10:22:13;;;;;;;7.20;2.60;;;;;;;24.25;51.34;102064.34;6187629;23;20052;-68
2023/07/10 10:24:39;;;;;;;6.50;2.67;;;;;;;24.26;48.62;102066.06;6186757;23;20004;-67
2023/07/10 10:27:13;;;;;;;9.57;2.40;;;;;;;24.38;49.87;102067.28;6162747;23;20331;-67
2023/07/10 10:30:26;;;;;;;7.32;2.30;;;;;;;24.54;49.73;102068.22;6187056;23;20012;-68
2023/07/10 10:32:54;;;;;;;5.28;2.03;;;;;;;24.70;52.57;102075.50;6186844;23;20004;-69
2023/07/10 10:35:35;;;;;;;7.30;2.33;;;;;;;24.78;50.47;102073.28;6185858;23;20005;-69
2023/07/10 10:38:25;;;;;;;7.05;2.60;;;;;;;24.89;52.40;102068.22;6187060;23;20091;-68
2023/07/10 10:41:00;;;;;;;7.63;2.67;;;;;;;24.68;52.69;102069.34;6184685;23;20335;-68
2023/07/10 10:43:32;;;;;;;6.28;2.60;;;;;;;24.45;52.17;102074.06;6182442;23;20016;-68
2023/07/10 10:46:02;;;;;;;10.77;2.97;;;;;;;24.42;52.18;102074.19;6184763;23;20083;-68
2023/07/10 10:48:46;;;;;;;;;;;;;;;24.69;51.21;102079.13;6186480;23;20161;-68
2023/07/10 10:51:35;;;;;;;8.15;2.33;;;;;;;24.45;49.38;102073.19;6211336;23;20210;-70
2023/07/10 10:54:13;;;;;;;10.13;2.13;;;;;;;24.37;49.85;102073.56;6185947;23;20087;-69
2023/07/10 10:56:46;;;;;;;4.97;1.90;;;;;;;24.27;50.59;102072.31;6186625;23;20011;-68
2023/07/10 10:59:14;;;;;;;5.82;2.17;;;;;;;24.14;50.07;102072.91;6186004;23;20147;-69
2023/07/10 11:01:45;;;;;;;6.88;2.10;;;;;;;23.88;50.54;102076.88;6186212;23;20387;-68
2023/07/10 11:04:36;;;;;;;6.68;2.10;;;;;;;24.11;50.67;102078.44;6185481;23;20005;-69
2023/07/10 11:07:06;;;;;;;6.57;2.42;;;;;;;24.27;49.69;102083.88;6187016;23;20385;-70
2023/07/10 11:09:38;;;;;;;7.10;2.00;;;;;;;24.39;51.10;102091.31;6212620;23;20323;-69
2023/07/10 11:12:05;;;;;;;7.03;2.20;;;;;;;24.57;48.58;102085.97;6186665;23;20119;-68
2023/07/10 11:14:30;;;;;;;8.18;2.33;;;;;;;24.60;49.06;102077.78;6161870;23;20431;-68
2023/07/10 11:16:57;;;;;;;7.38;2.25;;;;;;;24.50;49.63;102084.53;6161876;23;20103;-68
2023/07/10 11:19:32;;;;;;;5.50;2.20;;;;;;;24.45;50.24;102083.91;6160981;23;20009;-68
2023/07/10 11:22:11;;;;;;;5.95;1.65;;;;;;;24.49;49.09;102086.34;6162190;23;20004;-68
2023/07/10 11:24:37;;;;;;;6.30;1.70;;;;;;;24.42;50.34;102076.88;6210806;23;20008;-68
2023/07/10 11:27:14;;;;;;;6.28;1.95;;;;;;;24.39;49.86;102079.72;6186460;23;20024;-68
2023/07/10 11:29:43;;;;;;;5.05;1.75;;;;;;;24.24;49.97;102076.00;6186936;23;20008;-68